ACT        NSW        VIC        QLD        SA        WA        TAS        NT        INFO        CALC            by VK5ZD

  Atmospheric Gas Attenuation - ITU Rec 676-11   --------------- db/100km ---------------
SA Stations Date Time Temp RH % AH g/m3 Dew Point Wind Direction Speed kph Gust kph Barometer mB Rainfall Since 9am 24GHz 47GHz 76GHz 122GHz 134GHz 241GHz
Adelaide Airport 17 06:00 14.7 52 6.55 5 13 17 1027.9 0 15.2 23.0 32.1 83.7 72.4 247.5
ADELAIDE WEST TERRACE 17 06:00 14.1 57 6.92 5.7 11 15 1027.9 0 16.0 23.7 33.7 88.0 77.6 265.4
CAPE BORDA AWS 17 06:00 13.6 69 8.12 8 17 22 1027.6 0.2 18.6 25.7 38.6 101.1 93.5 321.0
CAPE JAFFA 17 06:00 12.6 82 9.07 9.6 15 20 1025.8 0.4 20.6 27.5 42.9 112.6 107.4 369.7
CAPE WILLOUGHBY 17 06:00 12.7 72 8.02 7.8 11 13 1027.5 0.4 18.4 25.8 38.6 101.1 93.2 320.0
Ceduna 17 06:00 3.4 86 5.26 1.3 9 11 1028.5 0 12.9 23.9 31.6 82.2 65.9 223.0
Clare 17 06:00 7.1 100 7.8 7.1 0 0 1027.8 0.2 18.2 27.1 40.5 106.1 97.1 332.9
Cleve Airport 17 06:00 10.7 71 6.98 5.7 2 6 1028.3 0 16.3 24.7 35.4 92.6 81.8 279.8
Coober Pedy Airport 17 06:00 7.3 72 5.69 2.6 15 19 1027 0 13.6 23.5 31.7 82.6 68.2 231.4
COONAWARRA AWS 17 06:00 10.1 99 9.36 9.9 4 7 1025.5 1 21.4 28.8 45.6 119.6 115.1 396.2
Cultana (Defence) 17 06:00 8.8 84 7.31 6.3 9 11 1013.1 0 17.1 25.2 37.0 96.9 87.2 298.5
Cummins Airport 17 06:00 2.7 100 5.83 2.7 0 0 1028.5 0.2 14.1 25.1 34.2 89.3 74.4 252.5
EDINBURGH AP 17 06:00 14 57 6.88 5.6 13 19 1028.1 0 15.9 23.7 33.6 87.8 77.2 264.0
EDITHBURGH AWS 17 06:00 13.6 62 7.3 6.5 9 13 1028 0.2 16.8 24.4 35.4 92.5 82.9 283.9
Ernabella/Pukatja 17 06:00 5.2 75 5.17 1.1 9 11 1024.3 0 12.6 23.1 30.4 79.0 63.0 213.0
HINDMARSH IS 17 06:00 14.3 65 7.99 7.8 19 28 1027.2 0 18.3 25.3 37.7 98.8 90.9 312.2
KADINA AWS 17 06:00 12.1 88 9.44 10.2 11 13 1028.3 0 21.5 28.4 44.9 117.8 113.5 390.9
KEITH AWS 17 06:00 9.9 87 8.13 7.8 2 4 1026.5 0.6 18.8 26.8 40.4 105.9 98.1 336.7
KINGSCOTE AP 17 06:00 12.8 68 7.62 7 9 9 1027.6 0 17.5 25.1 37.0 96.8 87.9 301.3
KUITPO AWS 17 06:00 10.7 70 6.88 5.5 9 17 1026.2 0 16.0 24.5 35.0 91.3 80.4 274.8
Lameroo Aws 17 06:00 10.7 84 8.25 8.1 9 9 1026.8 0.2 19.0 26.8 40.5 106.2 98.7 339.1
Leigh Creek 17 06:00 2.4 75 4.29 -1.6 7 11 1027.5 0 10.8 22.6 28.0 72.7 53.8 180.2
Loxton 17 06:00 10.7 80 7.86 7.4 7 9 1027.7 0 18.1 26.1 39.0 102.0 93.5 320.7
Marree Airport 17 06:00 5.4 76 5.31 1.5 13 15 1027.9 0 12.9 23.5 31.0 80.6 64.9 219.6
MINLATON AWS 17 06:00 11.5 90 9.3 9.9 6 7 1028 0 21.2 28.3 44.6 117.1 112.4 386.9
Minnipa Rs 17 06:00 7.2 76 5.97 3.3 13 17 1028.8 0 14.2 24.1 32.9 85.8 72.0 245.0
Moomba Airport 17 06:00 5.1 71 4.86 0.3 11 15 1026.6 0 11.9 22.8 29.3 76.0 59.2 199.6
MT CRAWFORD AWS 17 06:00 9.4 74 6.69 5 13 20 1026.9 0 15.7 24.6 34.8 90.8 79.3 270.7
MT GAMBIER 17 06:00 10.1 97 9.17 9.6 9 11 1025.3 2.4 21.0 28.5 44.7 117.4 112.3 386.6
MT LOFTY AWS 17 06:00 8 84 6.95 5.5 4 11 1013.1 0 16.3 24.9 35.9 93.9 83.2 284.5
Naracoorte 17 06:00 8.8 95 8.27 8 0 0 1025.8 0.6 19.1 27.3 41.6 109.0 101.4 348.2
NOARLUNGA AWS 17 06:00 13.7 64 7.58 7 4 7 1013.1 0 17.4 24.3 35.8 93.8 85.3 292.5
Nullarbor 17 06:00 5.9 93 6.71 4.9 17 19 1027.8 0 15.9 25.6 36.5 95.3 83.3 284.2
NURIOOTPA AWS 17 06:00 9.8 96 8.91 9.2 0 0 1028.1 0 20.4 28.2 43.9 115.1 109.3 376.0
Oodnadatta 17 06:00 4.2 67 4.32 -1.4 11 13 1026.5 0 10.8 22.1 27.5 71.2 52.9 177.3
Padthaway 17 06:00 10.9 92 9.15 9.7 9 11 1013.1 0.6 20.9 27.7 43.6 114.6 109.8 378.0
Pallamana 17 06:00 13 70 7.94 7.7 11 15 1027.7 0 18.2 25.6 38.2 99.9 91.8 315.2
PARAFIELD AP 17 06:00 14.2 57 6.96 5.8 15 20 1028 0 16.1 23.7 33.8 88.3 78.0 266.8
PARAWA AWS 17 06:00 10.9 77 7.66 7 7 11 1027.2 0.4 17.7 25.7 38.0 99.5 90.5 310.4
PARNDANA CFS AWS 17 06:00 11.4 76 7.8 7.3 11 15 1013.1 0.2 18.0 25.3 37.7 99.0 90.7 311.3
Point Avoid 17 06:00 13.3 88 10.17 11.4 9 13 1027.8 0 23.0 29.2 47.3 124.3 121.9 420.6
Port Augusta 17 06:00 3.2 90 5.43 1.7 4 6 1028.5 0 13.2 24.3 32.4 84.2 68.4 231.6
Port Lincoln Airport 17 06:00 10.9 80 7.96 7.6 9 13 1028.5 0 18.3 26.3 39.3 102.9 94.7 324.9
Port Pirie Airport Aws 17 06:00 7.7 86 6.98 5.5 0 0 1028.5 0 16.4 25.6 36.8 96.2 85.1 290.7
Renmark Airport 17 06:00 9.3 77 6.92 5.5 7 9 1027.5 0 16.2 25.0 35.8 93.5 82.4 281.8
Robe Airport 17 06:00 12.7 90 10.02 11.1 9 17 1025.6 0.6 22.7 29.1 46.9 123.2 120.5 415.6
Roseworthy 17 06:00 11.2 99 10.04 11 4 6 1027.6 0 22.8 29.7 48.0 126.1 123.4 425.5
Roxby Downs 17 06:00 4.1 82 5.25 1.3 7 9 1027.8 0 12.8 23.7 31.2 81.3 65.2 220.4
Snowtown 17 06:00 9.4 85 7.69 7 7 11 1028.3 0 17.8 26.3 38.9 101.9 92.8 318.1
STENHOUSE BAY 17 06:00 13.1 62 7.08 6 7 9 1027.8 1 16.4 24.2 34.8 90.8 80.6 275.8
STRATHALBYN AWS 17 06:00 13.1 62 7.08 6 13 19 1027.4 0 16.4 24.2 34.7 90.7 80.6 275.7
Tarcoola 17 06:00 2.2 74 4.17 -1.9 11 13 1028.3 0 10.6 22.5 27.7 71.6 52.4 175.2
Whyalla 17 06:00 10 79 7.43 6.5 7 9 1028.2 0 17.3 25.6 37.6 98.2 88.6 303.3
Woomera 17 06:00 6.7 76 5.78 2.8 13 13 1028 0 13.9 23.9 32.3 84.2 69.9 237.6
Wudinna Airport 17 06:00 2.4 82 4.69 -0.4 0 0 1029.1 0 11.7 23.3 29.7 77.1 59.1 199.0
Yunta 17 06:00 4.1 77 4.93 0.4 0 2 1027.5 0 12.1 23.2 30.0 77.8 60.9 205.5

Last Refresh: 17-May-2021 06:09:59

Bureau of Meteorology